Kranzburg, South Dakota
Current Conditions -  °F | °C
As of 5:36 AM on Wednesday 26 Nov 2014 (Local Time) from KATY Reporting Station
Light Snow Light Snow  
Wind Chill:   Ceiling: 3000
Heat Index: 19°   Visibility: 3mi
Dew Point: 15°   Wind: 24mph
Humidity: 85%   Direction: 10°N
Pressure: 30.05"   Gusts: 31mph
Location:  44.89°N, 96.92°W
Report Text: KATY 261136Z AUTO 01021G27KT 3SM -SN BR OVC030 M07/M09 A3005 RMK AO2 PK WND 02027/1128 SNB02 P0000 T10721094
Loading
Personal Weather Stations






























Interactive Weather Map New forecast layout! Learn more

10-Day Weather Forecast

Advertisements
Track Severe Weather on mobile